createdAt,value
2023-02-03T00:00:06.654Z,89.40
2023-02-03T00:02:35.082Z,95.97
2023-02-03T00:05:04.869Z,98.87
2023-02-03T00:07:34.954Z,95.10
2023-02-03T00:10:03.942Z,96.63
2023-02-03T00:12:32.516Z,95.23
2023-02-03T00:15:01.204Z,90.57
2023-02-03T00:17:29.608Z,96.23
2023-02-03T00:19:58.028Z,96.53
2023-02-03T00:22:27.814Z,90.90
2023-02-03T00:24:56.194Z,94.00
2023-02-03T00:27:24.832Z,92.50
2023-02-03T00:29:53.307Z,92.40
2023-02-03T00:32:21.864Z,94.40
2023-02-03T00:34:50.413Z,93.03
2023-02-03T00:37:18.949Z,91.73
2023-02-03T00:39:48.712Z,90.73
2023-02-03T00:42:17.239Z,87.77
2023-02-03T00:44:45.683Z,91.37
2023-02-03T00:47:14.101Z,94.87
2023-02-03T00:49:42.498Z,90.83
2023-02-03T00:52:10.931Z,93.00
2023-02-03T00:54:39.385Z,89.57
2023-02-03T00:57:09.221Z,90.10
2023-02-03T00:59:37.973Z,85.10
2023-02-03T01:02:06.377Z,87.37
2023-02-03T01:04:34.796Z,94.13
2023-02-03T01:07:03.224Z,91.97
2023-02-03T01:09:34.869Z,87.47
2023-02-03T01:12:03.405Z,86.93
2023-02-03T01:14:33.720Z,86.07
2023-02-03T01:17:02.574Z,86.17
2023-02-03T01:19:31.052Z,84.83
2023-02-03T01:21:59.491Z,87.73
2023-02-03T01:24:27.936Z,85.33
2023-02-03T01:26:56.338Z,89.03
2023-02-03T01:29:24.790Z,87.90
2023-02-03T01:31:54.696Z,82.23
2023-02-03T01:34:23.167Z,86.57
2023-02-03T01:36:51.647Z,83.50
2023-02-03T01:39:20.134Z,88.87
2023-02-03T01:41:48.493Z,88.00
2023-02-03T01:44:41.772Z,89.93
2023-02-03T01:47:16.482Z,88.60
2023-02-03T01:49:46.576Z,88.33
2023-02-03T01:52:14.971Z,95.57
2023-02-03T01:54:45.718Z,89.73
2023-02-03T01:57:17.509Z,86.37
2023-02-03T01:59:46.409Z,87.00
2023-02-03T02:02:16.274Z,86.07
2023-02-03T02:04:50.759Z,84.13
2023-02-03T02:07:19.155Z,82.63
2023-02-03T02:09:47.864Z,82.63
2023-02-03T02:12:16.268Z,84.30
2023-02-03T02:14:45.494Z,90.77
2023-02-03T02:17:19.939Z,90.93
2023-02-03T02:20:00.538Z,90.50
2023-02-03T02:22:32.490Z,82.70
2023-02-03T02:25:09.503Z,83.20
2023-02-03T02:27:52.844Z,79.27
2023-02-03T02:30:38.564Z,83.13
2023-02-03T02:33:12.597Z,81.00
2023-02-03T02:35:46.992Z,93.43
2023-02-03T02:38:17.723Z,91.93
2023-02-03T02:40:51.793Z,83.80
2023-02-03T02:43:22.996Z,88.17
2023-02-03T02:45:52.231Z,85.80
2023-02-03T02:48:24.953Z,85.80
2023-02-03T02:50:55.758Z,81.37
2023-02-03T02:53:26.636Z,86.33
2023-02-03T02:55:56.634Z,85.47
2023-02-03T02:58:25.356Z,82.30
2023-02-03T03:00:53.755Z,80.63
2023-02-03T03:03:23.005Z,80.73
2023-02-03T03:05:53.798Z,82.77
2023-02-03T03:08:24.679Z,80.93
2023-02-03T03:10:55.488Z,78.20
2023-02-03T03:13:26.031Z,86.43
2023-02-03T03:15:55.275Z,79.40
2023-02-03T03:18:25.692Z,84.03
2023-02-03T03:20:57.089Z,80.13
2023-02-03T03:23:28.398Z,81.70
2023-02-03T03:26:01.600Z,79.30
2023-02-03T03:28:32.415Z,82.97
2023-02-03T03:31:00.922Z,84.33
2023-02-03T03:33:29.426Z,75.17
2023-02-03T03:36:01.903Z,77.47
2023-02-03T03:38:34.366Z,74.00
2023-02-03T03:41:05.122Z,77.87
2023-02-03T03:43:35.678Z,78.90
2023-02-03T03:46:05.923Z,76.43
2023-02-03T03:48:36.289Z,71.93
2023-02-03T03:51:07.843Z,75.97
2023-02-03T03:53:37.901Z,78.23
2023-02-03T03:56:08.603Z,75.67
2023-02-03T03:58:38.571Z,75.93
2023-02-03T04:01:08.738Z,75.97
2023-02-03T04:03:39.915Z,73.07
2023-02-03T04:06:09.774Z,76.47
2023-02-03T04:08:39.397Z,74.50
2023-02-03T04:11:08.280Z,73.57
2023-02-03T04:13:36.925Z,76.77
2023-02-03T04:16:05.427Z,73.90
2023-02-03T04:18:33.856Z,72.27
2023-02-03T04:21:02.257Z,72.77
2023-02-03T04:23:32.051Z,72.77
2023-02-03T04:26:02.866Z,71.47
2023-02-03T04:28:31.266Z,71.10
2023-02-03T04:31:02.095Z,71.63
2023-02-03T04:33:31.224Z,71.20
2023-02-03T04:35:59.627Z,67.80
2023-02-03T04:38:28.452Z,76.53
2023-02-03T04:40:58.254Z,73.60
2023-02-03T04:43:26.655Z,73.50
2023-02-03T04:45:55.091Z,75.83
2023-02-03T04:48:23.541Z,75.20
2023-02-03T04:50:51.923Z,74.10
2023-02-03T04:53:20.323Z,75.00
2023-02-03T04:55:48.998Z,77.97
2023-02-03T04:58:18.794Z,78.40
2023-02-03T05:00:47.286Z,80.97
2023-02-03T05:03:15.774Z,71.13
2023-02-03T05:05:44.194Z,88.33
2023-02-03T05:08:12.605Z,84.70
2023-02-03T05:10:41.148Z,86.40
2023-02-03T05:13:09.649Z,85.93
2023-02-03T05:15:39.464Z,92.67
2023-02-03T05:18:07.977Z,82.77
2023-02-03T05:20:36.396Z,86.90
2023-02-03T05:23:04.812Z,81.83
2023-02-03T05:25:33.243Z,86.50
2023-02-03T05:28:02.124Z,88.03
2023-02-03T05:30:30.811Z,84.67
2023-02-03T05:33:00.738Z,81.40
2023-02-03T05:35:29.132Z,87.23
2023-02-03T05:37:57.590Z,82.87
2023-02-03T05:40:43.851Z,77.93
2023-02-03T05:43:12.263Z,77.17
2023-02-03T05:45:41.074Z,76.17
2023-02-03T05:48:10.899Z,75.80
2023-02-03T05:50:39.417Z,76.27
2023-02-03T05:53:08.359Z,75.47
2023-02-03T05:55:37.850Z,77.87
2023-02-03T05:58:06.535Z,77.00
2023-02-03T06:00:34.970Z,72.03
2023-02-03T06:03:04.493Z,71.47
2023-02-03T06:05:34.811Z,79.83
2023-02-03T06:08:03.406Z,73.80
2023-02-03T06:10:31.822Z,69.67
2023-02-03T06:13:00.466Z,69.17
2023-02-03T06:15:31.695Z,76.80
2023-02-03T06:18:00.166Z,74.13
2023-02-03T06:20:28.937Z,75.10
2023-02-03T06:22:59.069Z,70.73
2023-02-03T06:25:27.804Z,75.73
2023-02-03T06:27:56.228Z,79.33
2023-02-03T06:30:25.027Z,84.50
2023-02-03T06:32:53.595Z,73.97
2023-02-03T06:35:22.931Z,74.17
2023-02-03T06:37:51.349Z,78.73
2023-02-03T06:40:21.477Z,73.60
2023-02-03T06:42:50.826Z,73.90
2023-02-03T06:45:19.626Z,79.47
2023-02-03T06:47:48.097Z,72.30
2023-02-03T06:50:17.068Z,70.77
2023-02-03T06:52:45.751Z,67.93
2023-02-03T06:55:14.203Z,64.67
2023-02-03T06:57:47.819Z,67.63
2023-02-03T07:00:19.009Z,65.10
2023-02-03T07:02:48.251Z,66.10
2023-02-03T07:05:16.675Z,66.10
2023-02-03T07:07:45.148Z,65.37
2023-02-03T07:10:13.586Z,75.53
2023-02-03T07:12:42.127Z,73.43
2023-02-03T07:15:12.614Z,74.17
2023-02-03T07:17:41.038Z,73.63
2023-02-03T07:20:09.902Z,71.80
2023-02-03T07:22:40.755Z,66.73
2023-02-03T07:25:09.323Z,64.13
2023-02-03T07:27:37.726Z,62.90
2023-02-03T07:30:06.944Z,64.43
2023-02-03T07:32:36.715Z,58.80
2023-02-03T07:35:05.144Z,60.20
2023-02-03T07:37:33.571Z,59.93
2023-02-03T07:40:01.998Z,58.57
2023-02-03T07:42:30.380Z,58.93
2023-02-03T07:44:58.780Z,58.63
2023-02-03T07:47:27.173Z,59.13
2023-02-03T07:49:56.918Z,57.90
2023-02-03T07:52:25.375Z,56.57
2023-02-03T07:54:53.739Z,53.00
2023-02-03T07:57:22.151Z,51.73
2023-02-03T07:59:50.564Z,51.43
2023-02-03T08:02:18.968Z,50.53
2023-02-03T08:04:47.428Z,43.57
2023-02-03T08:07:17.275Z,41.77
2023-02-03T08:09:45.702Z,40.23
2023-02-03T08:12:14.367Z,44.50
2023-02-03T08:14:42.797Z,43.30
2023-02-03T08:17:11.219Z,42.33
2023-02-03T08:19:39.646Z,44.73
2023-02-03T08:22:08.257Z,41.80
2023-02-03T08:24:38.037Z,42.03
2023-02-03T08:27:06.613Z,44.37
2023-02-03T08:29:35.031Z,42.13
2023-02-03T08:32:05.341Z,45.50
2023-02-03T08:34:34.465Z,46.33
2023-02-03T08:37:03.004Z,48.30
2023-02-03T08:39:31.425Z,46.53
2023-02-03T08:42:01.204Z,43.67
2023-02-03T08:44:29.639Z,45.27
2023-02-03T08:46:58.090Z,46.43
2023-02-03T08:49:27.949Z,45.50
2023-02-03T08:51:56.985Z,43.33
2023-02-03T08:54:25.846Z,45.27
2023-02-03T08:56:54.698Z,46.73
2023-02-03T08:59:24.515Z,46.87
2023-02-03T09:01:53.672Z,45.57
2023-02-03T09:04:24.696Z,37.40
2023-02-03T09:06:54.528Z,39.03
2023-02-03T09:09:22.923Z,37.50
2023-02-03T09:11:51.601Z,45.03
2023-02-03T09:14:20.095Z,43.87
2023-02-03T09:16:49.893Z,46.93
2023-02-03T09:19:18.505Z,46.93
2023-02-03T09:21:49.098Z,44.67
2023-02-03T09:24:17.729Z,48.17
2023-02-03T09:26:46.139Z,48.67
2023-02-03T09:29:14.645Z,44.23
2023-02-03T09:31:43.984Z,46.97
2023-02-03T09:34:13.882Z,46.13
2023-02-03T09:36:43.175Z,47.17
2023-02-03T09:39:11.824Z,49.07
2023-02-03T09:41:55.317Z,48.97
2023-02-03T09:44:26.412Z,52.97
2023-02-03T09:46:57.769Z,56.67
2023-02-03T09:49:28.859Z,53.57
2023-02-03T09:51:59.925Z,56.73
2023-02-03T09:54:32.506Z,56.53
2023-02-03T09:57:02.385Z,60.37
2023-02-03T09:59:32.911Z,55.30
2023-02-03T10:02:09.592Z,54.73
2023-02-03T10:04:40.598Z,56.97
2023-02-03T10:07:13.332Z,53.53
2023-02-03T10:09:47.513Z,53.87
2023-02-03T10:12:29.271Z,54.87
2023-02-03T10:15:05.030Z,56.07
2023-02-03T10:17:35.666Z,55.90
2023-02-03T10:20:08.411Z,54.27
2023-02-03T10:22:39.587Z,56.33
2023-02-03T10:25:10.472Z,56.73
2023-02-03T10:27:39.378Z,60.00
2023-02-03T10:30:16.114Z,54.90
2023-02-03T10:32:44.953Z,60.80
2023-02-03T10:35:15.089Z,55.17
2023-02-03T10:37:45.141Z,53.43
2023-02-03T10:40:14.133Z,53.10
2023-02-03T10:43:01.556Z,52.23
2023-02-03T10:45:30.238Z,50.03
2023-02-03T10:47:58.926Z,46.63
2023-02-03T10:50:32.353Z,48.63
2023-02-03T10:53:15.593Z,50.33
2023-02-03T10:55:45.561Z,50.63
2023-02-03T10:58:17.045Z,49.13
2023-02-03T11:00:45.448Z,46.83
2023-02-03T11:03:23.342Z,46.40
2023-02-03T11:06:05.129Z,48.73
2023-02-03T11:08:34.427Z,49.27
2023-02-03T11:11:07.667Z,50.17
2023-02-03T11:13:36.284Z,45.13
2023-02-03T11:16:05.703Z,44.07
2023-02-03T11:18:45.979Z,44.00
2023-02-03T11:21:17.835Z,54.17
2023-02-03T11:23:51.485Z,56.03
2023-02-03T11:26:21.149Z,53.70
2023-02-03T11:28:51.088Z,55.10
2023-02-03T11:31:21.554Z,56.70
2023-02-03T11:33:50.575Z,55.77
2023-02-03T11:36:20.439Z,58.17
2023-02-03T11:38:48.899Z,57.07
2023-02-03T11:41:18.493Z,57.90
2023-02-03T11:43:47.165Z,59.80
2023-02-03T11:46:16.385Z,57.83
2023-02-03T11:48:52.721Z,59.73
2023-02-03T11:51:27.281Z,58.90
2023-02-03T11:54:02.031Z,58.10
2023-02-03T11:56:33.863Z,56.93
2023-02-03T11:59:19.454Z,57.53
2023-02-03T12:01:56.881Z,52.40
2023-02-03T12:04:34.168Z,54.37
2023-02-03T12:07:25.109Z,57.93
2023-02-03T12:09:56.393Z,59.37
2023-02-03T12:12:31.425Z,58.13
2023-02-03T12:15:05.802Z,59.33
2023-02-03T12:17:42.920Z,57.50
2023-02-03T12:20:24.255Z,58.63
2023-02-03T12:22:59.277Z,56.03
2023-02-03T12:25:35.401Z,58.23
2023-02-03T12:28:07.878Z,57.47
2023-02-03T12:30:39.750Z,57.07
2023-02-03T12:33:13.732Z,55.43
2023-02-03T12:35:48.247Z,56.50
2023-02-03T12:38:21.471Z,54.93
2023-02-03T12:40:52.481Z,54.53
2023-02-03T12:43:24.819Z,55.97
2023-02-03T12:45:55.704Z,56.87
2023-02-03T12:48:26.366Z,53.43
2023-02-03T12:50:58.348Z,60.43
2023-02-03T12:53:31.567Z,56.53
2023-02-03T12:56:02.928Z,56.10
2023-02-03T12:58:34.666Z,59.47
2023-02-03T13:01:07.386Z,55.73
2023-02-03T13:03:38.817Z,51.77
2023-02-03T13:06:10.978Z,55.10
2023-02-03T13:08:43.147Z,58.00
2023-02-03T13:11:18.316Z,60.87
2023-02-03T13:13:50.122Z,58.63
2023-02-03T13:16:20.074Z,62.37
2023-02-03T13:18:50.319Z,61.90
2023-02-03T13:21:18.860Z,58.10
2023-02-03T13:23:50.355Z,59.63
2023-02-03T13:26:36.715Z,58.80
2023-02-03T13:29:10.468Z,59.27
2023-02-03T13:31:45.040Z,57.53
2023-02-03T13:34:18.126Z,61.67
2023-02-03T13:37:10.351Z,57.03
2023-02-03T13:39:45.122Z,53.37
2023-02-03T13:42:20.927Z,53.57
2023-02-03T13:44:51.616Z,53.33
2023-02-03T13:47:21.483Z,53.50
2023-02-03T13:49:53.979Z,50.17
2023-02-03T13:52:26.494Z,47.13
2023-02-03T13:54:57.243Z,49.57
2023-02-03T13:57:31.465Z,47.83
2023-02-03T13:59:59.886Z,48.67
2023-02-03T14:02:32.560Z,47.47
2023-02-03T14:05:02.122Z,44.67
2023-02-03T14:07:34.126Z,52.53
2023-02-03T14:10:17.634Z,51.97
2023-02-03T14:13:00.357Z,49.80
2023-02-03T14:15:36.575Z,48.60
2023-02-03T14:18:32.722Z,49.60
2023-02-03T14:21:18.874Z,48.53
2023-02-03T14:24:01.297Z,43.60
2023-02-03T14:26:38.631Z,47.33
2023-02-03T14:29:09.449Z,45.90
2023-02-03T14:31:55.764Z,47.20
2023-02-03T14:34:32.035Z,46.77
2023-02-03T14:37:11.095Z,46.60
2023-02-03T14:39:58.169Z,41.70
2023-02-03T14:42:45.769Z,47.83
2023-02-03T14:45:25.105Z,46.80
2023-02-03T14:48:02.500Z,44.97
2023-02-03T14:50:37.084Z,45.97
2023-02-03T14:53:23.697Z,44.73
2023-02-03T14:55:58.103Z,42.67
2023-02-03T14:58:30.088Z,42.90
2023-02-03T15:01:00.626Z,42.13
2023-02-03T15:03:31.117Z,46.47
2023-02-03T15:06:01.593Z,47.50
2023-02-03T15:08:44.422Z,46.40
2023-02-03T15:11:33.849Z,45.93
2023-02-03T15:14:21.643Z,40.07
2023-02-03T15:16:55.047Z,42.77
2023-02-03T15:19:25.425Z,46.60
2023-02-03T15:21:53.892Z,42.63
2023-02-03T15:24:24.292Z,45.63
2023-02-03T15:26:53.458Z,46.07
2023-02-03T15:29:24.779Z,45.97
2023-02-03T15:31:58.871Z,41.80
2023-02-03T15:34:29.916Z,46.27
2023-02-03T15:36:59.145Z,46.67
2023-02-03T15:39:36.567Z,49.93
2023-02-03T15:42:07.041Z,44.37
2023-02-03T15:44:37.588Z,45.67
2023-02-03T15:47:08.904Z,49.73
2023-02-03T15:49:40.063Z,48.80
2023-02-03T15:52:10.136Z,47.30
2023-02-03T15:54:41.397Z,46.60
2023-02-03T15:57:11.652Z,49.03
2023-02-03T15:59:42.310Z,48.00
2023-02-03T16:02:18.106Z,46.00
2023-02-03T16:04:46.891Z,50.30
2023-02-03T16:07:18.579Z,51.93
2023-02-03T16:09:47.074Z,48.27
2023-02-03T16:12:19.461Z,49.20
2023-02-03T16:14:48.198Z,51.00
2023-02-03T16:17:28.259Z,53.10
2023-02-03T16:20:20.761Z,50.00
2023-02-03T16:23:00.886Z,51.97
2023-02-03T16:25:30.698Z,52.33
2023-02-03T16:28:17.696Z,51.30
2023-02-03T16:31:14.310Z,48.30
2023-02-03T16:34:04.707Z,49.27
2023-02-03T16:36:50.901Z,52.27
2023-02-03T16:39:36.945Z,48.80
2023-02-03T16:42:26.786Z,56.80
2023-02-03T16:45:12.812Z,54.87
2023-02-03T16:47:58.702Z,53.40
2023-02-03T16:50:47.457Z,50.77
2023-02-03T16:53:16.611Z,57.13
2023-02-03T16:55:45.679Z,53.43
2023-02-03T16:58:14.176Z,54.33
2023-02-03T17:00:43.038Z,54.83
2023-02-03T17:03:13.281Z,52.77
2023-02-03T17:05:44.039Z,52.23
2023-02-03T17:08:12.705Z,52.93
2023-02-03T17:10:41.904Z,50.20
2023-02-03T17:13:10.840Z,50.87
2023-02-03T17:15:41.331Z,49.77
2023-02-03T17:18:09.755Z,50.47
2023-02-03T17:20:38.593Z,49.63
2023-02-03T17:23:08.381Z,48.50
2023-02-03T17:25:37.101Z,48.00
2023-02-03T17:28:05.621Z,48.07
2023-02-03T17:30:35.234Z,48.83
2023-02-03T17:33:04.017Z,48.40
2023-02-03T17:35:32.712Z,52.20
2023-02-03T17:38:01.074Z,51.17
2023-02-03T17:54:21.288Z,52.77
2023-02-03T17:56:51.063Z,50.07
2023-02-03T17:59:19.459Z,50.50
2023-02-03T18:01:47.911Z,52.83
2023-02-03T18:04:16.277Z,53.27
2023-02-03T18:06:46.314Z,53.77
2023-02-03T18:09:16.734Z,55.07
2023-02-03T18:11:46.065Z,54.57
2023-02-03T18:14:17.996Z,55.80
2023-02-03T18:16:46.440Z,53.57
2023-02-03T18:19:16.089Z,55.47
2023-02-03T18:21:45.262Z,54.80
2023-02-03T18:24:14.208Z,54.87
2023-02-03T18:26:48.415Z,55.37
2023-02-03T18:29:18.185Z,55.70
2023-02-03T18:31:46.750Z,54.53
2023-02-03T18:34:15.469Z,53.93
2023-02-03T18:36:44.016Z,56.53
2023-02-03T18:39:14.296Z,55.20
2023-02-03T18:41:42.790Z,56.60
2023-02-03T18:44:11.290Z,56.80
2023-02-03T18:46:41.044Z,58.70
2023-02-03T18:49:10.492Z,57.07
2023-02-03T18:51:38.915Z,57.37
2023-02-03T18:54:07.640Z,57.70
2023-02-03T18:56:36.113Z,60.67
2023-02-03T18:59:08.192Z,59.77
2023-02-03T19:01:36.877Z,60.17
2023-02-03T19:04:06.786Z,59.80
2023-02-03T19:06:36.026Z,60.77
2023-02-03T19:09:05.489Z,62.30
2023-02-03T19:11:35.148Z,65.93
2023-02-03T19:14:03.777Z,64.07
2023-02-03T19:16:32.644Z,62.43
2023-02-03T19:19:01.026Z,62.60
2023-02-03T19:21:30.800Z,63.47
2023-02-03T19:23:59.242Z,65.00
2023-02-03T19:26:28.187Z,64.67
2023-02-03T19:28:56.869Z,64.97
2023-02-03T19:31:25.492Z,66.87
2023-02-03T19:33:54.003Z,67.53
2023-02-03T19:36:22.392Z,65.80
2023-02-03T19:38:52.188Z,64.33
2023-02-03T19:41:20.605Z,64.23
2023-02-03T19:43:52.018Z,65.17
2023-02-03T19:46:21.834Z,62.20
2023-02-03T19:48:50.382Z,62.17
2023-02-03T19:51:18.791Z,62.90
2023-02-03T19:53:47.207Z,64.23
2023-02-03T19:56:16.985Z,60.50
2023-02-03T19:58:50.565Z,63.57
2023-02-03T20:01:18.965Z,64.07
2023-02-03T20:03:47.514Z,62.03
2023-02-03T20:06:16.150Z,62.70
2023-02-03T20:08:44.551Z,61.97
2023-02-03T20:11:13.210Z,64.27
2023-02-03T20:13:43.505Z,65.73
2023-02-03T20:16:11.925Z,64.47
2023-02-03T20:18:40.367Z,61.90
2023-02-03T20:21:09.776Z,63.90
2023-02-03T20:23:38.589Z,65.43
2023-02-03T20:26:07.131Z,66.70
2023-02-03T20:28:35.577Z,62.80
2023-02-03T20:31:05.539Z,64.67
2023-02-03T20:33:35.384Z,62.73
2023-02-03T20:36:03.870Z,63.93
2023-02-03T20:38:32.486Z,62.80
2023-02-03T20:41:00.880Z,62.17
2023-02-03T20:43:29.847Z,66.13
2023-02-03T20:45:58.256Z,62.67
2023-02-03T20:48:28.273Z,62.77
2023-02-03T20:50:56.714Z,62.97
2023-02-03T20:53:26.346Z,61.90
2023-02-03T20:55:57.517Z,63.10
2023-02-03T20:58:26.763Z,61.70
2023-02-03T21:00:57.338Z,62.90
2023-02-03T21:03:43.791Z,64.50
2023-02-03T21:06:17.623Z,64.07
2023-02-03T21:08:48.532Z,62.20
2023-02-03T21:11:17.671Z,62.90
2023-02-03T21:13:47.025Z,61.93
2023-02-03T21:16:17.960Z,63.00
2023-02-03T21:18:48.765Z,64.90
2023-02-03T21:21:20.316Z,64.30
2023-02-03T21:23:48.747Z,67.53
2023-02-03T21:26:19.282Z,66.83
2023-02-03T21:28:48.596Z,67.03
2023-02-03T21:31:27.626Z,67.57
2023-02-03T21:33:56.622Z,66.20
2023-02-03T21:36:27.594Z,65.33
2023-02-03T21:38:56.737Z,65.10
2023-02-03T21:41:26.172Z,66.93
2023-02-03T21:43:55.244Z,67.47
2023-02-03T21:46:26.505Z,66.00
2023-02-03T21:48:55.963Z,66.97
2023-02-03T21:51:26.680Z,66.13
2023-02-03T21:53:57.054Z,71.00
2023-02-03T21:56:26.697Z,69.70
2023-02-03T21:58:57.650Z,70.90
2023-02-03T22:01:26.675Z,72.80
2023-02-03T22:03:55.821Z,71.77
2023-02-03T22:06:27.007Z,70.30
2023-02-03T22:08:56.300Z,74.20
2023-02-03T22:11:25.634Z,68.53
2023-02-03T22:13:54.263Z,72.07
2023-02-03T22:16:23.085Z,69.00
2023-02-03T22:18:51.638Z,71.00
2023-02-03T22:21:20.633Z,69.97
2023-02-03T22:23:50.665Z,68.27
2023-02-03T22:26:19.292Z,70.23
2023-02-03T22:28:48.119Z,71.60
2023-02-03T22:31:16.756Z,70.87
2023-02-03T22:33:45.658Z,68.40
2023-02-03T22:36:14.600Z,71.13
2023-02-03T22:38:43.671Z,71.40
2023-02-03T22:41:13.973Z,72.50
2023-02-03T22:43:42.530Z,71.57
2023-02-03T22:46:11.033Z,69.17
2023-02-03T22:48:39.497Z,72.97
2023-02-03T22:51:08.121Z,73.87
2023-02-03T22:53:36.577Z,72.27
2023-02-03T22:56:05.069Z,74.43
2023-02-03T22:58:34.876Z,72.63
2023-02-03T23:01:03.247Z,74.97
2023-02-03T23:03:32.733Z,76.40
2023-02-03T23:06:01.337Z,80.33
2023-02-03T23:08:29.765Z,79.80
2023-02-03T23:10:58.678Z,80.63
2023-02-03T23:13:28.197Z,83.53
2023-02-03T23:15:58.105Z,86.90
2023-02-03T23:18:26.542Z,87.33
2023-02-03T23:20:55.189Z,87.33
2023-02-03T23:23:23.572Z,85.80
2023-02-03T23:25:51.983Z,86.67
2023-02-03T23:28:20.529Z,88.03
2023-02-03T23:30:49.069Z,85.13
2023-02-03T23:33:18.887Z,84.60
2023-02-03T23:35:46.503Z,84.73
2023-02-03T23:38:15.440Z,88.30
2023-02-03T23:40:43.994Z,85.73
2023-02-03T23:43:12.469Z,84.90
2023-02-03T23:45:40.875Z,88.37
2023-02-03T23:48:09.366Z,88.97
2023-02-03T23:50:39.237Z,89.37
2023-02-03T23:53:07.654Z,89.03
2023-02-03T23:55:36.448Z,87.43
2023-02-03T23:58:05.843Z,87.93
